Legend :    VFR   Marginal VFR   IFR   Intensive IFR   Very Intensive IFR
Visi :
Ceiling :
>= 8 km
>= 3000ft
5 to 8 km
1000 to 3000 ft
1500m to 5 km
500 to 1000 ft
800 to 1500m
200 to 500 ft
< 800m
< 200 ft
Symbols :   Thunderstorms  Fog  Heavy snow  Heavy precipitations  Wind > 20 kt
SIGMETs :     Misc.  Thunderstorms  Icing  Turbulence  Mountain Waves  Volcanic Ashes






- Airport Elevation : 876 ft
- IATA code : MBX


LJMB - Maribor

CURRENT METAR :
  • 191300Z 02004KT 9999 OVC030 09/06 Q1015

EXPIRED METARs :
  • 191230Z 02004KT 340V060 9999 -RA FEW014 OVC033 09/06 Q1015
  • 191200Z 36005KT 9999 -RA OVC034 09/06 Q1015
  • 191130Z 01004KT 330V050 9999 -RA OVC034 08/06 Q1016
  • 191100Z 02006KT 350V050 9999 OVC028 08/05 Q1016
  • 191030Z 01007KT 9999 -RA OVC028 08/05 Q1016

TAF TAF LJMB
Valid from the 19 at 12:00 until the 20 at 12:00 UTC


191100Z 1912/2012 36005KT 9999 -RA OVC030
TEMPO 1919/2006 NSW


LOGIN :  

Disclaimer |     EN      FR      IT 



MET'MAP, your aeronautical weather chart ! - Copyright ORBIFLY December 2007 - Disclaimer


ORBIFLY MET'MAP TEAM :

Programming & Development : Alexandra Zaïnal
Concept & original design : Baudouin d'Aumeries
Assistance for programming : Marc-Olivier Méhu
Technical & hardware support : Manuel Goepfert

Contact : metmap@orbifly.com




SOURCES & CREDITS :

   NOAA